createdAt,value
2017-10-06T00:00:35.438Z,10.60
2017-10-06T00:03:04.489Z,10.60
2017-10-06T00:05:32.885Z,10.60
2017-10-06T00:08:01.149Z,10.60
2017-10-06T00:10:29.537Z,10.60
2017-10-06T00:12:58.565Z,10.60
2017-10-06T00:15:27.623Z,10.60
2017-10-06T00:17:55.894Z,10.60
2017-10-06T00:20:24.281Z,10.50
2017-10-06T00:22:52.562Z,10.50
2017-10-06T00:25:21.617Z,10.20
2017-10-06T00:27:49.873Z,10.20
2017-10-06T00:30:18.173Z,10.10
2017-10-06T00:32:46.478Z,10.00
2017-10-06T00:35:14.745Z,10.00
2017-10-06T00:37:43.026Z,9.90
2017-10-06T00:40:11.281Z,9.90
2017-10-06T00:42:39.582Z,9.90
2017-10-06T00:45:07.855Z,9.90
2017-10-06T00:47:36.130Z,9.90
2017-10-06T00:50:04.410Z,9.90
2017-10-06T00:52:32.693Z,9.90
2017-10-06T00:55:00.955Z,9.90
2017-10-06T00:57:29.262Z,9.90
2017-10-06T00:59:58.355Z,9.90
2017-10-06T01:02:26.660Z,9.90
2017-10-06T01:04:55.685Z,9.80
2017-10-06T01:07:23.945Z,9.80
2017-10-06T01:09:52.990Z,9.90
2017-10-06T01:12:21.261Z,9.90
2017-10-06T01:14:49.649Z,9.90
2017-10-06T01:17:17.927Z,10.00
2017-10-06T01:19:47.018Z,10.00
2017-10-06T01:22:15.286Z,10.10
2017-10-06T01:24:43.570Z,10.10
2017-10-06T01:27:11.869Z,10.10
2017-10-06T01:29:41.673Z,10.10
2017-10-06T01:32:11.449Z,10.20
2017-10-06T01:34:39.753Z,10.20
2017-10-06T01:37:08.045Z,10.20
2017-10-06T01:39:36.309Z,10.20
2017-10-06T01:42:05.358Z,10.20
2017-10-06T01:44:33.681Z,10.20
2017-10-06T01:47:01.962Z,10.20
2017-10-06T01:49:31.056Z,10.10
2017-10-06T01:51:59.337Z,10.10
2017-10-06T01:54:27.702Z,10.20
2017-10-06T01:56:56.085Z,10.20
2017-10-06T01:59:24.354Z,10.20
2017-10-06T02:01:52.631Z,10.20
2017-10-06T02:04:21.017Z,10.20
2017-10-06T02:06:49.287Z,10.20
2017-10-06T02:09:17.673Z,10.30
2017-10-06T02:11:45.985Z,10.30
2017-10-06T02:14:15.149Z,10.20
2017-10-06T02:16:43.425Z,10.20
2017-10-06T02:19:11.702Z,10.30
2017-10-06T02:21:39.969Z,10.30
2017-10-06T02:24:08.382Z,10.30
2017-10-06T02:26:36.641Z,10.30
2017-10-06T02:29:05.034Z,10.30
2017-10-06T02:31:34.069Z,10.20
2017-10-06T02:34:02.338Z,10.20
2017-10-06T02:36:31.394Z,10.10
2017-10-06T02:39:00.436Z,10.10
2017-10-06T02:41:29.475Z,10.10
2017-10-06T02:43:57.733Z,10.00
2017-10-06T02:46:26.026Z,10.00
2017-10-06T02:48:54.297Z,10.10
2017-10-06T02:51:22.607Z,10.10
2017-10-06T02:53:50.873Z,10.10
2017-10-06T02:56:20.653Z,10.20
2017-10-06T02:58:48.937Z,10.10
2017-10-06T03:01:17.196Z,10.20
2017-10-06T03:03:45.494Z,10.20
2017-10-06T03:06:13.775Z,10.20
2017-10-06T03:08:42.165Z,10.20
2017-10-06T03:11:10.460Z,10.20
2017-10-06T03:13:38.749Z,10.20
2017-10-06T03:16:07.781Z,10.20
2017-10-06T03:18:36.046Z,10.20
2017-10-06T03:21:04.338Z,10.20
2017-10-06T03:23:32.657Z,10.30
2017-10-06T03:26:01.019Z,10.30
2017-10-06T03:28:29.282Z,10.30
2017-10-06T03:30:57.577Z,10.30
2017-10-06T03:33:25.846Z,10.30
2017-10-06T03:35:54.141Z,10.30
2017-10-06T03:38:22.514Z,10.30
2017-10-06T03:40:50.780Z,10.40
2017-10-06T03:43:19.071Z,10.40
2017-10-06T03:45:47.324Z,10.40
2017-10-06T03:48:15.821Z,10.40
2017-10-06T03:50:44.102Z,10.40
2017-10-06T03:53:12.381Z,10.40
2017-10-06T03:55:40.646Z,10.40
2017-10-06T03:58:08.932Z,10.40
2017-10-06T04:00:37.214Z,10.40
2017-10-06T04:03:05.685Z,10.40
2017-10-06T04:05:34.065Z,10.30
2017-10-06T04:08:02.325Z,10.30
2017-10-06T04:10:30.615Z,10.30
2017-10-06T04:12:58.874Z,10.20
2017-10-06T04:15:27.162Z,10.30
2017-10-06T04:17:55.442Z,10.30
2017-10-06T04:20:24.478Z,10.30
2017-10-06T04:22:52.742Z,10.20
2017-10-06T04:25:21.045Z,10.30
2017-10-06T04:27:49.317Z,10.30
2017-10-06T04:30:17.585Z,10.30
2017-10-06T04:32:45.910Z,10.40
2017-10-06T04:35:14.176Z,10.30
2017-10-06T04:37:42.548Z,10.30
2017-10-06T04:40:10.812Z,10.30
2017-10-06T04:42:39.094Z,10.30
2017-10-06T04:45:07.375Z,10.30
2017-10-06T04:47:35.680Z,10.30
2017-10-06T04:50:04.029Z,10.30
2017-10-06T04:52:32.305Z,10.30
2017-10-06T04:55:00.582Z,10.30
2017-10-06T04:57:28.873Z,10.30
2017-10-06T04:59:57.141Z,10.30
2017-10-06T05:02:25.412Z,10.30
2017-10-06T05:04:54.477Z,10.30
2017-10-06T05:07:22.733Z,10.30
2017-10-06T05:09:51.037Z,10.30
2017-10-06T05:12:19.301Z,10.30
2017-10-06T05:14:47.566Z,10.20
2017-10-06T05:17:15.861Z,10.30
2017-10-06T05:19:44.130Z,10.30
2017-10-06T05:22:12.414Z,10.30
2017-10-06T05:24:40.675Z,10.40
2017-10-06T05:27:08.952Z,10.40
2017-10-06T05:29:37.221Z,10.40
2017-10-06T05:32:06.346Z,10.40
2017-10-06T05:34:34.617Z,10.40
2017-10-06T05:37:02.890Z,10.40
2017-10-06T05:39:31.172Z,10.40
2017-10-06T05:41:59.450Z,10.40
2017-10-06T05:44:27.735Z,10.40
2017-10-06T05:46:56.149Z,10.40
2017-10-06T05:49:26.257Z,10.40
2017-10-06T05:51:54.525Z,10.40
2017-10-06T05:54:22.794Z,10.40
2017-10-06T05:56:51.191Z,10.40
2017-10-06T05:59:20.341Z,10.40
2017-10-06T06:01:48.697Z,10.40
2017-10-06T06:04:17.117Z,10.40
2017-10-06T06:06:46.919Z,10.50
2017-10-06T06:09:16.160Z,10.50
2017-10-06T06:11:44.432Z,10.50
2017-10-06T06:14:12.720Z,10.50
2017-10-06T06:16:41.105Z,10.50
2017-10-06T06:19:09.385Z,10.50
2017-10-06T06:21:37.689Z,10.50
2017-10-06T06:24:05.961Z,10.40
2017-10-06T06:26:35.017Z,10.50
2017-10-06T06:29:03.297Z,10.50
2017-10-06T06:31:31.688Z,10.40
2017-10-06T06:33:59.983Z,10.40
2017-10-06T06:36:30.202Z,10.50
2017-10-06T06:38:59.258Z,10.50
2017-10-06T06:41:27.533Z,10.50
2017-10-06T06:43:55.833Z,10.50
2017-10-06T06:46:24.114Z,10.60
2017-10-06T06:48:52.419Z,10.60
2017-10-06T06:51:20.779Z,10.60
2017-10-06T06:53:49.044Z,10.60
2017-10-06T06:56:17.332Z,10.70
2017-10-06T06:58:45.600Z,10.80
2017-10-06T07:01:13.882Z,10.90
2017-10-06T07:03:42.178Z,11.00
2017-10-06T07:06:10.451Z,11.10
2017-10-06T07:08:38.749Z,11.00
2017-10-06T07:11:08.563Z,10.90
2017-10-06T07:13:36.875Z,11.00
2017-10-06T07:16:05.283Z,10.90
2017-10-06T07:18:34.345Z,10.70
2017-10-06T07:21:02.646Z,10.70
2017-10-06T07:23:31.051Z,10.50
2017-10-06T07:26:00.102Z,10.20
2017-10-06T07:28:28.493Z,10.20
2017-10-06T07:30:56.770Z,10.20
2017-10-06T07:33:25.106Z,10.10
2017-10-06T07:35:53.424Z,10.10
2017-10-06T07:38:21.698Z,10.00
2017-10-06T07:40:50.106Z,10.00
2017-10-06T07:43:18.558Z,10.00
2017-10-06T07:45:46.849Z,10.00
2017-10-06T07:48:16.625Z,10.00
2017-10-06T07:50:44.901Z,10.00
2017-10-06T07:53:13.186Z,10.00
2017-10-06T07:55:41.545Z,10.00
2017-10-06T07:58:09.913Z,10.00
2017-10-06T08:00:38.181Z,10.00
2017-10-06T08:03:07.240Z,10.00
2017-10-06T08:05:35.494Z,10.00
2017-10-06T08:08:03.785Z,10.10
2017-10-06T08:10:32.045Z,10.10
2017-10-06T08:13:00.351Z,10.10
2017-10-06T08:15:28.617Z,10.10
2017-10-06T08:17:56.950Z,10.10
2017-10-06T08:20:25.247Z,10.20
2017-10-06T08:22:53.509Z,10.20
2017-10-06T08:25:22.646Z,10.20
2017-10-06T08:27:50.922Z,10.20
2017-10-06T08:30:19.406Z,10.20
2017-10-06T08:32:47.658Z,10.20
2017-10-06T08:35:15.957Z,10.30
2017-10-06T08:37:44.209Z,10.30
2017-10-06T08:40:12.511Z,10.40
2017-10-06T08:42:41.659Z,10.50
2017-10-06T08:45:10.726Z,10.70
2017-10-06T08:47:39.783Z,10.90
2017-10-06T08:50:08.077Z,10.90
2017-10-06T08:52:36.464Z,11.00
2017-10-06T08:55:04.788Z,11.00
2017-10-06T08:57:33.195Z,11.00
2017-10-06T09:00:01.455Z,11.10
2017-10-06T09:02:29.793Z,11.20
2017-10-06T09:04:58.161Z,11.10
2017-10-06T09:07:27.193Z,11.00
2017-10-06T09:09:55.502Z,11.00
2017-10-06T09:12:23.773Z,10.90
2017-10-06T09:14:52.058Z,10.90
2017-10-06T09:17:20.332Z,10.90
2017-10-06T09:19:48.617Z,10.90
2017-10-06T09:22:16.886Z,10.90
2017-10-06T09:24:45.173Z,10.90
2017-10-06T09:27:13.448Z,10.90
2017-10-06T09:29:41.709Z,11.00
2017-10-06T09:32:10.032Z,11.10
2017-10-06T09:34:38.305Z,11.30
2017-10-06T09:37:06.589Z,11.40
2017-10-06T09:39:34.862Z,11.40
2017-10-06T09:42:03.147Z,11.50
2017-10-06T09:44:31.413Z,11.60
2017-10-06T09:46:59.984Z,11.60
2017-10-06T09:49:29.058Z,11.70
2017-10-06T09:51:57.368Z,11.70
2017-10-06T09:54:27.151Z,11.40
2017-10-06T09:56:55.429Z,11.40
2017-10-06T09:59:23.738Z,11.20
2017-10-06T10:01:52.001Z,11.20
2017-10-06T10:04:20.298Z,11.10
2017-10-06T10:06:48.661Z,10.90
2017-10-06T10:09:17.717Z,11.00
2017-10-06T10:11:45.982Z,11.00
2017-10-06T10:14:14.317Z,11.10
2017-10-06T10:16:43.361Z,10.90
2017-10-06T10:19:11.685Z,10.90
2017-10-06T10:21:40.090Z,10.90
2017-10-06T10:24:08.341Z,10.90
2017-10-06T10:26:36.634Z,10.80
2017-10-06T10:29:04.905Z,10.80
2017-10-06T10:31:34.685Z,10.90
2017-10-06T10:34:03.188Z,10.90
2017-10-06T10:36:32.281Z,11.10
2017-10-06T10:39:01.313Z,11.20
2017-10-06T10:41:30.353Z,11.20
2017-10-06T10:43:58.653Z,11.20
2017-10-06T10:46:26.945Z,11.30
2017-10-06T10:48:55.217Z,11.30
2017-10-06T10:51:23.491Z,11.40
2017-10-06T10:53:51.784Z,11.50
2017-10-06T10:56:20.059Z,11.60
2017-10-06T10:58:48.363Z,11.80
2017-10-06T11:01:16.633Z,11.80
2017-10-06T11:03:45.691Z,11.90
2017-10-06T11:06:14.783Z,12.00
2017-10-06T11:08:43.048Z,12.00
2017-10-06T11:11:11.441Z,12.00
2017-10-06T11:13:39.717Z,11.90
2017-10-06T11:16:08.014Z,11.80
2017-10-06T11:18:36.285Z,11.70
2017-10-06T11:21:04.573Z,11.60
2017-10-06T11:23:33.608Z,11.20
2017-10-06T11:26:01.921Z,11.20
2017-10-06T11:28:30.957Z,11.00
2017-10-06T11:30:59.233Z,11.00
2017-10-06T11:33:28.290Z,11.10
2017-10-06T11:35:56.570Z,11.00
2017-10-06T11:38:24.853Z,11.20
2017-10-06T11:40:53.121Z,11.20
2017-10-06T11:43:22.178Z,11.50
2017-10-06T11:45:50.488Z,11.50
2017-10-06T11:48:18.820Z,11.50
2017-10-06T11:50:47.078Z,11.50
2017-10-06T11:53:16.141Z,11.50
2017-10-06T11:55:44.428Z,11.50
2017-10-06T11:58:12.801Z,11.60
2017-10-06T12:00:41.170Z,11.60
2017-10-06T12:03:09.434Z,11.60
2017-10-06T12:05:37.725Z,11.60
2017-10-06T12:08:06.120Z,11.60
2017-10-06T12:10:34.489Z,11.50
2017-10-06T12:13:02.758Z,11.60
2017-10-06T12:15:31.133Z,11.70
2017-10-06T12:17:59.397Z,11.60
2017-10-06T12:20:27.708Z,11.70
2017-10-06T12:22:56.182Z,11.70
2017-10-06T12:25:24.453Z,11.70
2017-10-06T12:27:52.737Z,11.70
2017-10-06T12:30:21.108Z,11.80
2017-10-06T12:32:49.534Z,12.00
2017-10-06T12:35:18.555Z,12.20
2017-10-06T12:37:46.874Z,12.20
2017-10-06T12:40:15.197Z,12.60
2017-10-06T12:42:44.238Z,13.20
2017-10-06T12:45:12.612Z,13.20
2017-10-06T12:47:40.903Z,13.50
2017-10-06T12:50:10.060Z,13.90
2017-10-06T12:52:38.342Z,13.80
2017-10-06T12:55:06.654Z,14.00
2017-10-06T12:57:35.810Z,14.10
2017-10-06T13:00:04.202Z,14.10
2017-10-06T13:02:32.477Z,14.00
2017-10-06T13:05:00.766Z,13.90
2017-10-06T13:07:29.124Z,13.50
2017-10-06T13:09:57.425Z,13.00
2017-10-06T13:12:25.711Z,12.50
2017-10-06T13:14:54.749Z,11.30
2017-10-06T13:17:23.040Z,11.20
2017-10-06T13:19:51.306Z,10.70
2017-10-06T13:22:19.690Z,10.40
2017-10-06T13:24:47.967Z,10.10
2017-10-06T13:27:16.362Z,9.80
2017-10-06T13:29:46.160Z,9.80
2017-10-06T13:32:14.551Z,9.80
2017-10-06T13:34:42.817Z,9.70
2017-10-06T13:37:11.199Z,9.80
2017-10-06T13:39:39.458Z,9.70
2017-10-06T13:42:07.733Z,9.70
2017-10-06T13:44:36.037Z,9.70
2017-10-06T13:47:05.132Z,9.60
2017-10-06T13:49:33.514Z,9.60
2017-10-06T13:52:02.542Z,9.60
2017-10-06T13:54:31.685Z,9.60
2017-10-06T13:56:59.945Z,9.60
2017-10-06T13:59:28.363Z,9.70
2017-10-06T14:01:58.142Z,9.80
2017-10-06T14:04:26.393Z,9.80
2017-10-06T14:06:54.718Z,9.90
2017-10-06T14:11:56.659Z,10.10
2017-10-06T14:14:24.966Z,10.10
2017-10-06T14:16:53.250Z,10.20
2017-10-06T14:19:21.550Z,10.20
2017-10-06T14:21:51.338Z,10.20
2017-10-06T14:24:19.609Z,10.20
2017-10-06T14:26:48.000Z,10.30
2017-10-06T14:29:16.257Z,10.40
2017-10-06T14:31:44.598Z,10.40
2017-10-06T14:34:12.896Z,10.40
2017-10-06T14:36:41.229Z,10.50
2017-10-06T14:39:09.517Z,10.60
2017-10-06T14:41:37.781Z,10.80
2017-10-06T14:44:06.844Z,11.00
2017-10-06T14:46:35.106Z,10.90
2017-10-06T14:49:03.395Z,11.00
2017-10-06T14:51:31.665Z,11.00
2017-10-06T14:54:00.046Z,11.00
2017-10-06T14:56:28.325Z,11.00
2017-10-06T14:58:57.733Z,10.90
2017-10-06T15:01:26.014Z,10.90
2017-10-06T15:03:54.327Z,11.00
2017-10-06T15:06:22.609Z,11.00
2017-10-06T15:08:50.891Z,11.10
2017-10-06T15:11:19.190Z,11.10
2017-10-06T15:13:48.213Z,11.20
2017-10-06T15:16:16.495Z,11.20
2017-10-06T15:18:44.761Z,11.20
2017-10-06T15:21:13.053Z,11.10
2017-10-06T15:23:41.324Z,11.10
2017-10-06T15:26:09.649Z,11.10
2017-10-06T15:28:38.013Z,11.10
2017-10-06T15:31:07.051Z,11.10
2017-10-06T15:33:35.361Z,11.10
2017-10-06T15:36:03.613Z,11.20
2017-10-06T15:38:31.928Z,11.20
2017-10-06T15:41:00.186Z,11.20
2017-10-06T15:43:28.479Z,11.20
2017-10-06T15:45:56.838Z,11.20
2017-10-06T15:48:25.154Z,11.20
2017-10-06T15:50:54.193Z,11.30
2017-10-06T15:53:22.466Z,11.30
2017-10-06T15:55:50.762Z,11.30
2017-10-06T15:58:19.046Z,11.30
2017-10-06T16:00:47.357Z,11.30
2017-10-06T16:03:16.389Z,11.50
2017-10-06T16:05:44.698Z,11.50
2017-10-06T16:08:17.420Z,11.80
2017-10-06T16:10:47.401Z,12.00
2017-10-06T16:13:15.728Z,11.90
2017-10-06T16:15:44.766Z,11.80
2017-10-06T16:18:14.565Z,11.60
2017-10-06T16:20:42.849Z,11.60
2017-10-06T16:23:11.137Z,11.60
2017-10-06T16:25:39.407Z,11.50
2017-10-06T16:28:07.708Z,11.50
2017-10-06T16:30:36.761Z,11.40
2017-10-06T16:33:05.151Z,11.40
2017-10-06T16:35:33.423Z,11.40
2017-10-06T16:38:02.462Z,11.30
2017-10-06T16:40:30.776Z,11.20
2017-10-06T16:42:59.066Z,11.20
2017-10-06T16:45:28.095Z,11.10
2017-10-06T16:47:56.411Z,11.10
2017-10-06T16:50:24.670Z,11.00
2017-10-06T16:52:52.973Z,11.00
2017-10-06T16:55:21.253Z,11.00
2017-10-06T16:57:49.525Z,10.90
2017-10-06T17:00:17.825Z,10.90
2017-10-06T17:02:46.856Z,10.90
2017-10-06T17:05:15.171Z,10.80
2017-10-06T17:07:43.442Z,10.90
2017-10-06T17:10:11.729Z,10.80
2017-10-06T17:12:40.101Z,10.80
2017-10-06T17:15:08.505Z,10.70
2017-10-06T17:17:36.770Z,10.70
2017-10-06T17:20:05.041Z,10.70
2017-10-06T17:22:33.332Z,10.70
2017-10-06T17:25:01.706Z,10.70
2017-10-06T17:27:29.993Z,10.60
2017-10-06T17:29:58.353Z,10.60
2017-10-06T17:32:27.417Z,10.60
2017-10-06T17:34:55.697Z,10.60
2017-10-06T17:37:25.289Z,10.60
2017-10-06T17:39:53.572Z,10.60
2017-10-06T17:42:21.900Z,10.60
2017-10-06T17:44:50.174Z,10.50
2017-10-06T17:47:18.463Z,10.60
2017-10-06T17:49:46.764Z,10.60
2017-10-06T17:52:15.021Z,10.60
2017-10-06T17:54:43.329Z,10.60
2017-10-06T17:57:11.590Z,10.60
2017-10-06T17:59:39.982Z,10.60
2017-10-06T18:02:08.251Z,10.60
2017-10-06T18:04:36.641Z,10.60
2017-10-06T18:07:04.913Z,10.60
2017-10-06T18:09:33.306Z,10.60
2017-10-06T18:12:03.082Z,10.50
2017-10-06T18:14:31.398Z,10.50
2017-10-06T18:16:59.673Z,10.50
2017-10-06T18:19:29.469Z,10.50
2017-10-06T18:21:57.759Z,10.50
2017-10-06T18:24:26.043Z,10.40
2017-10-06T18:26:54.326Z,10.40
2017-10-06T18:29:22.625Z,10.40
2017-10-06T18:31:51.689Z,10.40
2017-10-06T18:34:20.051Z,10.30
2017-10-06T18:36:48.429Z,10.30
2017-10-06T18:39:16.702Z,10.30
2017-10-06T18:41:45.026Z,10.30
2017-10-06T18:44:14.054Z,10.20
2017-10-06T18:46:42.314Z,10.20
2017-10-06T18:49:10.593Z,10.20
2017-10-06T18:51:38.909Z,10.20
2017-10-06T18:54:07.202Z,10.20
2017-10-06T18:56:36.237Z,10.20
2017-10-06T18:59:04.566Z,10.20
2017-10-06T19:01:32.825Z,10.30
2017-10-06T19:04:01.111Z,10.30
2017-10-06T19:06:29.380Z,10.20
2017-10-06T19:08:57.681Z,10.10
2017-10-06T19:11:26.759Z,10.20
2017-10-06T19:13:55.301Z,10.10
2017-10-06T19:16:23.685Z,10.10
2017-10-06T19:18:51.965Z,10.20
2017-10-06T19:21:20.250Z,10.10
2017-10-06T19:23:48.535Z,10.10
2017-10-06T19:26:16.850Z,10.10
2017-10-06T19:28:45.917Z,10.10
2017-10-06T19:31:14.242Z,10.10
2017-10-06T19:33:43.321Z,10.10
2017-10-06T19:36:11.620Z,10.10
2017-10-06T19:38:40.665Z,10.10
2017-10-06T19:41:09.061Z,10.10
2017-10-06T19:43:37.317Z,10.10
2017-10-06T19:46:05.615Z,10.10
2017-10-06T19:48:34.063Z,10.10
2017-10-06T19:51:02.327Z,10.10
2017-10-06T19:53:30.615Z,10.10
2017-10-06T19:55:58.869Z,10.10
2017-10-06T19:58:27.170Z,10.10
2017-10-06T20:00:55.431Z,10.10
2017-10-06T20:03:23.723Z,10.00
2017-10-06T20:05:52.071Z,10.00
2017-10-06T20:08:21.166Z,10.00
2017-10-06T20:10:50.203Z,10.00
2017-10-06T20:13:18.537Z,10.00
2017-10-06T20:15:47.696Z,10.00
2017-10-06T20:18:15.953Z,10.00
2017-10-06T20:20:44.253Z,10.00
2017-10-06T20:23:14.033Z,9.90
2017-10-06T20:25:42.340Z,9.90
2017-10-06T20:28:10.620Z,10.00
2017-10-06T20:30:39.706Z,9.90
2017-10-06T20:33:08.784Z,9.90
2017-10-06T20:35:37.105Z,9.90
2017-10-06T20:38:05.432Z,9.90
2017-10-06T20:40:33.794Z,9.90
2017-10-06T20:43:02.098Z,9.90
2017-10-06T20:45:30.414Z,9.90
2017-10-06T20:47:58.669Z,9.90
2017-10-06T20:50:26.989Z,9.90
2017-10-06T20:52:56.070Z,9.80
2017-10-06T20:55:25.875Z,9.80
2017-10-06T20:57:54.187Z,9.80
2017-10-06T21:00:23.268Z,9.90
2017-10-06T21:02:51.592Z,9.80
2017-10-06T21:05:19.884Z,9.90
2017-10-06T21:07:48.155Z,9.90
2017-10-06T21:10:16.519Z,9.90
2017-10-06T21:12:44.861Z,9.90
2017-10-06T21:15:13.916Z,9.90
2017-10-06T21:17:42.249Z,9.90
2017-10-06T21:20:10.573Z,9.90
2017-10-06T21:22:38.817Z,9.90
2017-10-06T21:25:07.334Z,9.80
2017-10-06T21:27:35.606Z,9.80
2017-10-06T21:30:04.052Z,9.80
2017-10-06T21:32:32.328Z,9.80
2017-10-06T21:35:00.677Z,9.80
2017-10-06T21:37:28.958Z,9.80
2017-10-06T21:39:58.125Z,9.70
2017-10-06T21:42:27.908Z,9.80
2017-10-06T21:44:58.201Z,9.80
2017-10-06T21:47:27.226Z,9.80
2017-10-06T21:49:56.793Z,9.70
2017-10-06T21:52:25.704Z,9.70
2017-10-06T21:54:54.039Z,9.70
2017-10-06T21:57:22.336Z,9.70
2017-10-06T21:59:50.695Z,9.70
2017-10-06T22:02:18.961Z,9.70
2017-10-06T22:04:47.231Z,9.70
2017-10-06T22:07:15.513Z,9.70
2017-10-06T22:09:43.773Z,9.70
2017-10-06T22:12:12.075Z,9.70
2017-10-06T22:14:40.326Z,9.70
2017-10-06T22:17:08.628Z,9.70
2017-10-06T22:19:36.912Z,9.70
2017-10-06T22:22:05.165Z,9.70
2017-10-06T22:24:33.461Z,9.70
2017-10-06T22:27:01.740Z,9.70
2017-10-06T22:29:30.017Z,9.70
2017-10-06T22:31:59.781Z,9.70
2017-10-06T22:34:28.096Z,9.70
2017-10-06T22:36:56.404Z,9.70
2017-10-06T22:39:24.760Z,9.70
2017-10-06T22:41:53.104Z,9.70
2017-10-06T22:44:21.406Z,9.70
2017-10-06T22:46:49.673Z,9.60
2017-10-06T22:49:17.937Z,9.60
2017-10-06T22:51:46.234Z,9.60
2017-10-06T22:54:14.538Z,9.60
2017-10-06T22:56:43.582Z,9.60
2017-10-06T22:59:11.977Z,9.60
2017-10-06T23:01:40.300Z,9.70
2017-10-06T23:04:08.566Z,9.70
2017-10-06T23:06:36.853Z,9.70
2017-10-06T23:09:05.877Z,9.70
2017-10-06T23:11:34.293Z,9.70
2017-10-06T23:14:02.547Z,9.60
2017-10-06T23:16:30.956Z,9.60
2017-10-06T23:18:59.264Z,9.60
2017-10-06T23:21:27.580Z,9.60
2017-10-06T23:23:55.887Z,9.60
2017-10-06T23:26:24.170Z,9.50
2017-10-06T23:28:52.509Z,9.50
2017-10-06T23:31:20.846Z,9.50
2017-10-06T23:33:49.144Z,9.50
2017-10-06T23:36:18.177Z,9.50
2017-10-06T23:38:46.475Z,9.50
2017-10-06T23:41:14.750Z,9.50
2017-10-06T23:43:43.056Z,9.50
2017-10-06T23:46:11.405Z,9.50
2017-10-06T23:48:39.772Z,9.50
2017-10-06T23:51:08.096Z,9.50
2017-10-06T23:53:36.366Z,9.50
2017-10-06T23:56:04.680Z,9.60
2017-10-06T23:58:32.961Z,9.50
